Time;durP1;ratioP1;P1;durP2;ratioP2;P2;SDS_P1;SDS_P2;PMS_P1;PMS_P2;Temp;Humidity;BMP_temperature;BMP_pressure;BME280_temperature;BME280_humidity;BME280_pressure;Samples;Min_cycle;Max_cycle;Signal;HPM_P1;HPM_P2
2021/12/31 00:00:12;;;;;;;0.10;0.10;;;;;;;;;;5012904;28;20203;-70
2021/12/31 00:02:39;;;;;;;0.10;0.10;;;;;;;;;;5020259;28;20225;-70
2021/12/31 00:05:07;;;;;;;0.10;0.10;;;;;;;;;;5004275;28;20212;-69
2021/12/31 00:07:33;;;;;;;0.10;0.10;;;;;;;;;;5007194;28;20428;-69
2021/12/31 00:10:00;;;;;;;0.10;0.10;;;;;;;;;;5003185;28;20360;-69
2021/12/31 00:12:27;;;;;;;0.10;0.10;;;;;;;;;;5004743;28;20226;-68
2021/12/31 00:14:53;;;;;;;0.10;0.10;;;;;;;;;;5007475;28;20207;-69
2021/12/31 00:17:19;;;;;;;0.10;0.10;;;;;;;;;;5007168;28;20208;-68
2021/12/31 00:19:59;;;;;;;0.10;0.10;;;;;;;;;;5007337;28;20208;-69
2021/12/31 00:25:14;;;;;;;0.10;0.10;;;;;;;;;;4987267;28;20203;-68
2021/12/31 00:27:41;;;;;;;0.10;0.10;;;;;;;;;;5007279;28;20526;-68
2021/12/31 00:30:07;;;;;;;0.10;0.10;;;;;;;;;;5006941;28;20199;-68
2021/12/31 00:32:33;;;;;;;0.10;0.10;;;;;;;;;;5007242;28;20249;-69
2021/12/31 00:35:01;;;;;;;0.10;0.10;;;;;;;;;;5024599;28;20213;-69
2021/12/31 00:37:29;;;;;;;0.10;0.10;;;;;;;;;;5042496;28;20205;-69
2021/12/31 00:39:55;;;;;;;0.10;0.10;;;;;;;;;;5042308;28;20210;-70
2021/12/31 00:42:21;;;;;;;0.10;0.10;;;;;;;;;;5039960;28;20500;-70
2021/12/31 00:44:48;;;;;;;0.10;0.10;;;;;;;;;;5031954;28;20205;-69
2021/12/31 00:47:14;;;;;;;0.10;0.10;;;;;;;;;;5011987;28;20497;-69
2021/12/31 00:49:40;;;;;;;0.10;0.10;;;;;;;;;;5009232;28;20230;-70
2021/12/31 00:52:08;;;;;;;0.10;0.10;;;;;;;;;;5024661;28;20264;-70
2021/12/31 00:54:35;;;;;;;0.10;0.10;;;;;;;;;;5026251;28;20203;-70
2021/12/31 00:57:03;;;;;;;0.10;0.10;;;;;;;;;;5026358;28;20249;-71
2021/12/31 00:59:30;;;;;;;0.00;0.00;;;;;;;;;;5026256;28;20211;-69
2021/12/31 01:01:56;;;;;;;0.10;0.10;;;;;;;;;;5025873;28;20224;-69
2021/12/31 01:04:23;;;;;;;0.10;0.10;;;;;;;;;;5033663;28;20285;-69
2021/12/31 01:06:49;;;;;;;0.10;0.10;;;;;;;;;;5045916;28;20214;-70
2021/12/31 01:09:17;;;;;;;0.10;0.10;;;;;;;;;;5045923;28;20217;-69
2021/12/31 01:11:47;;;;;;;0.10;0.10;;;;;;;;;;5045825;28;20228;-69
2021/12/31 01:14:22;;;;;;;0.10;0.10;;;;;;;;;;5046137;28;20249;-70
2021/12/31 01:16:51;;;;;;;0.10;0.10;;;;;;;;;;5045705;28;20193;-70
2021/12/31 01:22:01;;;;;;;0.10;0.10;;;;;;;;;;5045532;28;20267;-69
2021/12/31 01:24:30;;;;;;;0.10;0.10;;;;;;;;;;5043770;28;20231;-70
2021/12/31 01:26:57;;;;;;;0.10;0.10;;;;;;;;;;5045199;28;20213;-70
2021/12/31 01:29:23;;;;;;;0.10;0.10;;;;;;;;;;5045152;28;20210;-70
2021/12/31 01:31:51;;;;;;;0.03;0.03;;;;;;;;;;5045519;28;20272;-70
2021/12/31 01:34:17;;;;;;;0.10;0.10;;;;;;;;;;5044913;28;20209;-70
2021/12/31 01:36:44;;;;;;;0.10;0.10;;;;;;;;;;5045285;28;20205;-70
2021/12/31 01:39:10;;;;;;;0.10;0.10;;;;;;;;;;5045325;28;20250;-70
2021/12/31 01:41:37;;;;;;;0.10;0.10;;;;;;;;;;5045259;28;20571;-70
2021/12/31 01:44:04;;;;;;;0.10;0.10;;;;;;;;;;5032316;28;20273;-70
2021/12/31 01:46:30;;;;;;;0.10;0.10;;;;;;;;;;5025398;28;20277;-69
2021/12/31 01:49:02;;;;;;;0.10;0.10;;;;;;;;;;5012990;28;20210;-69
2021/12/31 01:51:29;;;;;;;0.10;0.10;;;;;;;;;;5005260;28;20261;-70
2021/12/31 01:53:55;;;;;;;0.10;0.10;;;;;;;;;;5005292;28;20212;-70
2021/12/31 01:56:23;;;;;;;0.20;0.20;;;;;;;;;;5005459;28;20220;-70
2021/12/31 01:58:54;;;;;;;0.10;0.10;;;;;;;;;;5005529;28;20213;-69
2021/12/31 02:01:20;;;;;;;0.10;0.10;;;;;;;;;;5005261;28;20194;-70
2021/12/31 02:03:46;;;;;;;0.10;0.10;;;;;;;;;;5010935;28;20286;-69
2021/12/31 02:06:12;;;;;;;0.10;0.10;;;;;;;;;;5044719;28;20427;-69
2021/12/31 02:08:39;;;;;;;0.10;0.10;;;;;;;;;;5044521;28;20197;-69
2021/12/31 02:11:05;;;;;;;0.30;0.30;;;;;;;;;;5044736;28;20209;-69
2021/12/31 02:13:31;;;;;;;0.10;0.10;;;;;;;;;;5044357;28;20239;-69
2021/12/31 02:15:59;;;;;;;0.10;0.10;;;;;;;;;;5044324;28;20207;-69
2021/12/31 02:18:27;;;;;;;0.20;0.20;;;;;;;;;;5044292;28;20211;-69
2021/12/31 02:20:55;;;;;;;0.10;0.10;;;;;;;;;;5044266;28;20212;-69
2021/12/31 02:23:24;;;;;;;0.10;0.10;;;;;;;;;;5044122;28;20224;-69
2021/12/31 02:25:51;;;;;;;0.10;0.10;;;;;;;;;;5044134;28;20209;-68
2021/12/31 02:28:18;;;;;;;0.10;0.10;;;;;;;;;;5044341;28;20499;-69
2021/12/31 02:30:44;;;;;;;0.10;0.10;;;;;;;;;;5044290;28;20258;-69
2021/12/31 02:33:10;;;;;;;0.10;0.10;;;;;;;;;;5044315;28;20211;-69
2021/12/31 02:35:37;;;;;;;0.10;0.10;;;;;;;;;;5043585;28;20263;-69
2021/12/31 02:38:06;;;;;;;0.10;0.10;;;;;;;;;;5037406;28;20211;-69
2021/12/31 02:40:33;;;;;;;0.00;0.00;;;;;;;;;;5024446;28;20249;-70
2021/12/31 02:42:59;;;;;;;0.10;0.10;;;;;;;;;;5024244;28;20391;-69
2021/12/31 02:45:29;;;;;;;0.10;0.10;;;;;;;;;;5024312;28;20556;-69
2021/12/31 02:47:56;;;;;;;0.10;0.10;;;;;;;;;;5024294;28;20296;-69
2021/12/31 02:50:30;;;;;;;0.10;0.10;;;;;;;;;;5023812;28;20223;-69
2021/12/31 02:52:57;;;;;;;0.10;0.10;;;;;;;;;;5023897;28;20243;-69
2021/12/31 02:55:30;;;;;;;0.10;0.10;;;;;;;;;;5024049;28;20277;-69
2021/12/31 02:57:57;;;;;;;0.10;0.10;;;;;;;;;;5023715;28;20249;-69
2021/12/31 03:00:23;;;;;;;0.10;0.10;;;;;;;;;;5023585;28;20510;-70
2021/12/31 03:02:50;;;;;;;0.10;0.10;;;;;;;;;;5023959;28;20400;-70
2021/12/31 03:05:16;;;;;;;0.23;0.23;;;;;;;;;;5023618;28;20239;-70
2021/12/31 03:07:44;;;;;;;0.10;0.10;;;;;;;;;;5023577;28;20253;-70
2021/12/31 03:10:10;;;;;;;0.10;0.10;;;;;;;;;;5023937;28;20509;-70
2021/12/31 03:12:39;;;;;;;0.00;0.00;;;;;;;;;;5023501;28;20214;-69
2021/12/31 03:15:06;;;;;;;0.10;0.10;;;;;;;;;;5023451;28;20381;-69
2021/12/31 03:17:32;;;;;;;0.10;0.10;;;;;;;;;;5023361;28;20215;-69
2021/12/31 03:20:10;;;;;;;0.10;0.10;;;;;;;;;;5023366;28;20205;-69
2021/12/31 03:22:36;;;;;;;0.10;0.10;;;;;;;;;;5023490;28;20201;-69
2021/12/31 03:25:02;;;;;;;0.10;0.10;;;;;;;;;;5023608;28;20537;-69
2021/12/31 03:27:28;;;;;;;0.10;0.10;;;;;;;;;;5023385;28;20206;-70
2021/12/31 03:29:56;;;;;;;0.07;0.07;;;;;;;;;;5023544;28;20208;-69
2021/12/31 03:32:22;;;;;;;0.10;0.10;;;;;;;;;;5023285;28;20232;-69
2021/12/31 03:34:48;;;;;;;0.10;0.10;;;;;;;;;;5023462;28;20202;-68
2021/12/31 03:37:14;;;;;;;0.10;0.10;;;;;;;;;;5023488;28;20557;-69
2021/12/31 03:39:41;;;;;;;0.10;0.10;;;;;;;;;;5023219;28;20230;-70
2021/12/31 03:42:07;;;;;;;0.10;0.10;;;;;;;;;;5023095;28;20207;-69
2021/12/31 03:44:33;;;;;;;0.10;0.10;;;;;;;;;;5023401;28;20535;-69
2021/12/31 03:47:01;;;;;;;0.00;0.00;;;;;;;;;;5022593;28;20517;-70
2021/12/31 03:49:27;;;;;;;0.07;0.07;;;;;;;;;;5023162;28;20228;-69
2021/12/31 03:51:53;;;;;;;0.10;0.10;;;;;;;;;;5022970;28;20258;-69
2021/12/31 03:54:20;;;;;;;0.10;0.10;;;;;;;;;;5023401;28;20207;-69
2021/12/31 03:56:47;;;;;;;0.00;0.00;;;;;;;;;;5023009;28;20208;-69
2021/12/31 03:59:13;;;;;;;0.10;0.10;;;;;;;;;;5022975;28;20523;-68
2021/12/31 04:01:40;;;;;;;0.10;0.10;;;;;;;;;;5022889;28;20208;-69
2021/12/31 04:04:08;;;;;;;0.10;0.10;;;;;;;;;;5028774;28;20229;-69
2021/12/31 04:06:34;;;;;;;0.10;0.10;;;;;;;;;;5042698;28;20213;-69
2021/12/31 04:09:00;;;;;;;0.10;0.10;;;;;;;;;;5042877;28;20207;-69
2021/12/31 04:11:27;;;;;;;0.10;0.10;;;;;;;;;;5042939;28;20208;-69
2021/12/31 04:13:53;;;;;;;0.00;0.00;;;;;;;;;;5042651;28;20253;-69
2021/12/31 04:16:19;;;;;;;0.10;0.10;;;;;;;;;;5042862;28;20269;-69
2021/12/31 04:18:46;;;;;;;0.10;0.10;;;;;;;;;;5025613;28;20214;-70
2021/12/31 04:21:15;;;;;;;0.10;0.10;;;;;;;;;;5022825;28;20215;-70
2021/12/31 04:23:50;;;;;;;0.10;0.10;;;;;;;;;;5022962;28;20228;-71
2021/12/31 04:26:16;;;;;;;0.10;0.10;;;;;;;;;;5023026;28;20266;-70
2021/12/31 04:28:43;;;;;;;0.10;0.10;;;;;;;;;;5023663;28;20206;-70
2021/12/31 04:31:09;;;;;;;0.10;0.10;;;;;;;;;;5022906;28;20251;-70
2021/12/31 04:33:35;;;;;;;0.10;0.10;;;;;;;;;;5022717;28;20212;-69
2021/12/31 04:36:01;;;;;;;0.10;0.10;;;;;;;;;;5023012;28;20206;-69
2021/12/31 04:38:29;;;;;;;0.10;0.10;;;;;;;;;;5022573;28;20528;-69
2021/12/31 04:40:55;;;;;;;0.10;0.10;;;;;;;;;;5022647;28;20212;-69
2021/12/31 04:43:21;;;;;;;0.10;0.10;;;;;;;;;;5022845;28;20209;-70
2021/12/31 04:45:48;;;;;;;0.10;0.10;;;;;;;;;;5022426;28;20230;-70
2021/12/31 04:48:14;;;;;;;0.10;0.10;;;;;;;;;;5022861;28;20258;-69
2021/12/31 04:50:40;;;;;;;0.10;0.10;;;;;;;;;;5022419;28;20239;-70
2021/12/31 04:53:07;;;;;;;0.10;0.10;;;;;;;;;;5022886;28;20208;-70
2021/12/31 04:55:34;;;;;;;0.10;0.10;;;;;;;;;;5022475;28;20205;-69
2021/12/31 04:58:01;;;;;;;0.10;0.10;;;;;;;;;;5023381;28;20215;-70
2021/12/31 05:00:27;;;;;;;0.10;0.10;;;;;;;;;;5025857;28;20521;-71
2021/12/31 05:02:53;;;;;;;0.10;0.10;;;;;;;;;;5025848;28;20268;-69
2021/12/31 05:05:19;;;;;;;0.10;0.10;;;;;;;;;;5040780;28;20222;-69
2021/12/31 05:07:46;;;;;;;0.10;0.10;;;;;;;;;;5031198;28;20207;-69
2021/12/31 05:10:12;;;;;;;0.10;0.10;;;;;;;;;;5026023;28;20260;-70
2021/12/31 05:12:40;;;;;;;0.10;0.10;;;;;;;;;;5026114;28;20206;-70
2021/12/31 05:15:09;;;;;;;0.10;0.10;;;;;;;;;;5025955;28;20211;-70
2021/12/31 05:17:35;;;;;;;0.10;0.10;;;;;;;;;;5025987;28;20208;-69
2021/12/31 05:20:01;;;;;;;0.10;0.10;;;;;;;;;;5025899;28;20206;-69
2021/12/31 05:22:27;;;;;;;0.10;0.10;;;;;;;;;;5025802;28;20249;-69
2021/12/31 05:24:54;;;;;;;0.10;0.10;;;;;;;;;;5025379;28;20226;-70
2021/12/31 05:27:20;;;;;;;0.10;0.10;;;;;;;;;;5025853;28;20248;-69
2021/12/31 05:29:48;;;;;;;0.10;0.10;;;;;;;;;;5025641;28;20211;-69
2021/12/31 05:32:14;;;;;;;0.10;0.10;;;;;;;;;;5026014;28;20425;-70
2021/12/31 05:34:40;;;;;;;0.10;0.10;;;;;;;;;;5025678;28;20226;-70
2021/12/31 05:37:06;;;;;;;0.10;0.10;;;;;;;;;;5025605;28;20245;-69
2021/12/31 05:39:32;;;;;;;0.10;0.10;;;;;;;;;;5025379;28;20265;-69
2021/12/31 05:41:59;;;;;;;0.10;0.10;;;;;;;;;;5025172;28;20207;-68
2021/12/31 05:44:25;;;;;;;0.10;0.10;;;;;;;;;;5025365;28;20223;-69
2021/12/31 05:46:53;;;;;;;0.10;0.10;;;;;;;;;;5025100;28;20207;-68
2021/12/31 05:49:20;;;;;;;0.10;0.10;;;;;;;;;;5025081;28;20206;-68
2021/12/31 05:51:46;;;;;;;0.10;0.10;;;;;;;;;;5024876;28;20236;-68
2021/12/31 05:54:12;;;;;;;0.10;0.10;;;;;;;;;;5025300;28;20203;-69
2021/12/31 05:56:39;;;;;;;0.10;0.10;;;;;;;;;;5024795;28;20207;-69
2021/12/31 05:59:05;;;;;;;0.10;0.10;;;;;;;;;;5025176;28;20206;-69
2021/12/31 06:01:31;;;;;;;0.10;0.10;;;;;;;;;;5025171;28;20206;-69
2021/12/31 06:03:59;;;;;;;0.00;0.00;;;;;;;;;;5029538;28;20288;-69
2021/12/31 06:06:25;;;;;;;0.10;0.10;;;;;;;;;;5044587;28;20199;-69
2021/12/31 06:08:51;;;;;;;0.10;0.10;;;;;;;;;;5044735;28;20304;-69
2021/12/31 06:11:17;;;;;;;0.07;0.07;;;;;;;;;;5043628;28;20208;-69
2021/12/31 06:13:49;;;;;;;0.10;0.10;;;;;;;;;;5044372;28;20429;-70
2021/12/31 06:16:15;;;;;;;0.10;0.10;;;;;;;;;;5044695;28;20222;-69
2021/12/31 06:18:41;;;;;;;0.10;0.10;;;;;;;;;;5044304;28;20206;-69
2021/12/31 06:21:09;;;;;;;0.07;0.07;;;;;;;;;;5044395;28;20205;-69
2021/12/31 06:23:35;;;;;;;0.10;0.10;;;;;;;;;;5044554;28;20208;-69
2021/12/31 06:26:01;;;;;;;0.10;0.10;;;;;;;;;;5044073;28;20228;-68
2021/12/31 06:28:27;;;;;;;0.10;0.10;;;;;;;;;;5044123;28;20207;-68
2021/12/31 06:30:54;;;;;;;0.10;0.10;;;;;;;;;;5044361;28;20553;-69
2021/12/31 06:33:20;;;;;;;0.93;0.77;;;;;;;;;;5021233;28;20207;-70
2021/12/31 06:35:46;;;;;;;0.10;0.10;;;;;;;;;;5012604;28;20526;-71
2021/12/31 06:38:14;;;;;;;0.10;0.10;;;;;;;;;;5018871;28;20231;-69
2021/12/31 06:40:40;;;;;;;0.10;0.10;;;;;;;;;;5011274;28;20504;-69
2021/12/31 06:43:06;;;;;;;0.10;0.10;;;;;;;;;;5007225;28;20652;-71
2021/12/31 06:45:32;;;;;;;0.10;0.10;;;;;;;;;;5010296;28;20220;-69
2021/12/31 06:47:59;;;;;;;0.10;0.10;;;;;;;;;;5016911;28;20208;-69
2021/12/31 06:50:25;;;;;;;0.00;0.00;;;;;;;;;;5009215;28;20220;-68
2021/12/31 06:52:51;;;;;;;0.10;0.10;;;;;;;;;;5004260;28;20207;-69
2021/12/31 06:55:19;;;;;;;0.10;0.10;;;;;;;;;;5004094;28;20502;-71
2021/12/31 06:57:46;;;;;;;0.00;0.00;;;;;;;;;;5004173;28;20261;-70
2021/12/31 07:00:13;;;;;;;0.10;0.10;;;;;;;;;;5004753;28;20217;-71
2021/12/31 07:02:39;;;;;;;0.10;0.10;;;;;;;;;;5004174;28;20222;-69
2021/12/31 07:05:06;;;;;;;0.00;0.00;;;;;;;;;;5003942;28;20276;-70
2021/12/31 07:07:32;;;;;;;0.07;0.07;;;;;;;;;;5004218;28;20262;-70
2021/12/31 07:09:58;;;;;;;0.10;0.10;;;;;;;;;;5003925;28;20341;-70
2021/12/31 07:12:26;;;;;;;0.10;0.10;;;;;;;;;;5004279;28;20397;-70
2021/12/31 07:14:52;;;;;;;0.00;0.00;;;;;;;;;;5004222;28;20227;-70
2021/12/31 07:17:18;;;;;;;0.10;0.10;;;;;;;;;;5003885;28;20239;-70
2021/12/31 07:19:45;;;;;;;0.10;0.10;;;;;;;;;;5004171;28;20249;-67
2021/12/31 07:22:11;;;;;;;0.10;0.10;;;;;;;;;;5004035;28;20236;-70
2021/12/31 07:24:37;;;;;;;0.10;0.10;;;;;;;;;;5003951;28;20296;-70
2021/12/31 07:27:04;;;;;;;0.10;0.10;;;;;;;;;;5004164;28;20213;-70
2021/12/31 07:29:31;;;;;;;0.10;0.10;;;;;;;;;;5003699;28;20200;-65
2021/12/31 07:31:57;;;;;;;0.00;0.00;;;;;;;;;;5003959;28;20267;-66
2021/12/31 07:34:24;;;;;;;0.00;0.00;;;;;;;;;;5003838;28;20516;-66
2021/12/31 07:36:50;;;;;;;0.10;0.10;;;;;;;;;;5003690;28;20216;-65
2021/12/31 07:39:20;;;;;;;0.10;0.10;;;;;;;;;;5003886;28;20260;-64
2021/12/31 07:41:46;;;;;;;0.10;0.10;;;;;;;;;;5014641;28;20222;-65
2021/12/31 07:44:12;;;;;;;0.10;0.10;;;;;;;;;;5023075;28;20204;-65
2021/12/31 07:46:43;;;;;;;0.10;0.10;;;;;;;;;;5023039;28;20229;-65
2021/12/31 07:49:09;;;;;;;0.10;0.10;;;;;;;;;;5023499;28;20242;-65
2021/12/31 07:51:36;;;;;;;0.10;0.10;;;;;;;;;;5023097;28;20581;-63
2021/12/31 07:54:02;;;;;;;0.10;0.10;;;;;;;;;;5023420;28;20220;-65
2021/12/31 07:56:30;;;;;;;0.10;0.10;;;;;;;;;;5023382;28;20278;-65
2021/12/31 07:58:56;;;;;;;0.10;0.10;;;;;;;;;;5023488;28;20212;-65
2021/12/31 08:01:22;;;;;;;0.10;0.10;;;;;;;;;;5023343;28;20205;-65
2021/12/31 08:03:50;;;;;;;0.10;0.10;;;;;;;;;;5023279;28;20280;-65
2021/12/31 08:06:16;;;;;;;0.10;0.10;;;;;;;;;;5023198;28;20336;-66
2021/12/31 08:08:42;;;;;;;0.10;0.10;;;;;;;;;;5023121;28;20206;-64
2021/12/31 08:11:09;;;;;;;0.10;0.10;;;;;;;;;;5023213;28;20207;-66
2021/12/31 08:13:35;;;;;;;0.10;0.10;;;;;;;;;;5022946;28;20208;-65
2021/12/31 08:16:01;;;;;;;0.10;0.10;;;;;;;;;;5022992;28;20210;-65
2021/12/31 08:18:27;;;;;;;0.10;0.10;;;;;;;;;;5023273;28;20210;-65
2021/12/31 08:20:55;;;;;;;0.10;0.10;;;;;;;;;;5023145;28;20246;-65
2021/12/31 08:23:21;;;;;;;0.10;0.10;;;;;;;;;;5023015;28;20269;-64
2021/12/31 08:25:47;;;;;;;0.10;0.10;;;;;;;;;;5022860;28;20477;-67
2021/12/31 08:28:14;;;;;;;0.10;0.10;;;;;;;;;;5022969;28;20211;-65
2021/12/31 08:30:40;;;;;;;0.10;0.10;;;;;;;;;;5022605;28;20201;-65
2021/12/31 08:33:06;;;;;;;0.10;0.10;;;;;;;;;;5020617;28;20210;-66
2021/12/31 08:35:32;;;;;;;0.00;0.00;;;;;;;;;;5009047;28;20199;-65
2021/12/31 08:38:00;;;;;;;0.00;0.00;;;;;;;;;;5006768;28;20208;-66
2021/12/31 08:40:26;;;;;;;0.10;0.10;;;;;;;;;;5015193;28;20233;-68
2021/12/31 08:42:53;;;;;;;0.10;0.10;;;;;;;;;;5009117;28;20527;-66
2021/12/31 08:45:19;;;;;;;0.10;0.10;;;;;;;;;;5011898;28;20526;-66
2021/12/31 08:47:45;;;;;;;0.10;0.10;;;;;;;;;;5017041;28;20207;-66
2021/12/31 08:50:11;;;;;;;0.10;0.10;;;;;;;;;;5011060;28;20239;-66
2021/12/31 08:52:38;;;;;;;0.10;0.10;;;;;;;;;;5011358;28;20330;-64
2021/12/31 08:55:06;;;;;;;0.10;0.10;;;;;;;;;;5012359;28;20248;-65
2021/12/31 08:57:32;;;;;;;0.20;0.20;;;;;;;;;;5016484;28;20208;-66
2021/12/31 08:59:58;;;;;;;0.10;0.10;;;;;;;;;;5009060;28;20504;-68
2021/12/31 09:02:24;;;;;;;0.10;0.10;;;;;;;;;;5007303;28;20209;-66
2021/12/31 09:04:50;;;;;;;0.10;0.10;;;;;;;;;;5006597;28;20208;-67
2021/12/31 09:07:17;;;;;;;0.10;0.10;;;;;;;;;;5006210;28;20269;-67
2021/12/31 09:09:43;;;;;;;0.00;0.00;;;;;;;;;;5006614;28;20229;-66
2021/12/31 09:12:11;;;;;;;0.10;0.10;;;;;;;;;;5006256;28;20210;-67
2021/12/31 09:14:37;;;;;;;0.10;0.10;;;;;;;;;;5006381;28;20288;-70
2021/12/31 09:17:03;;;;;;;0.10;0.10;;;;;;;;;;5023765;28;20196;-71
2021/12/31 09:19:29;;;;;;;0.10;0.10;;;;;;;;;;5037989;28;20204;-68
2021/12/31 09:21:57;;;;;;;0.10;0.10;;;;;;;;;;5009507;28;20493;-71
2021/12/31 09:24:23;;;;;;;0.10;0.10;;;;;;;;;;5006103;28;20209;-71
2021/12/31 09:26:49;;;;;;;0.10;0.10;;;;;;;;;;5018863;28;20241;-69
2021/12/31 09:29:18;;;;;;;0.10;0.10;;;;;;;;;;5025788;28;20206;-70
2021/12/31 09:31:45;;;;;;;0.10;0.10;;;;;;;;;;5014241;28;20208;-71
2021/12/31 09:34:11;;;;;;;0.10;0.10;;;;;;;;;;5015956;28;20507;-69
2021/12/31 09:36:37;;;;;;;0.10;0.10;;;;;;;;;;5023188;28;20203;-70
2021/12/31 09:39:03;;;;;;;0.10;0.10;;;;;;;;;;5021910;28;20279;-70
2021/12/31 09:41:30;;;;;;;0.10;0.10;;;;;;;;;;5023228;28;20201;-71
2021/12/31 09:43:56;;;;;;;0.10;0.10;;;;;;;;;;5010191;28;20252;-69
2021/12/31 09:46:23;;;;;;;0.10;0.10;;;;;;;;;;5010116;28;20271;-70
2021/12/31 09:48:50;;;;;;;0.00;0.00;;;;;;;;;;5014624;28;20266;-70
2021/12/31 09:51:16;;;;;;;0.10;0.10;;;;;;;;;;5009044;28;20236;-66
2021/12/31 09:53:43;;;;;;;0.00;0.00;;;;;;;;;;5008162;28;20205;-71
2021/12/31 09:56:09;;;;;;;0.10;0.10;;;;;;;;;;5014086;28;20223;-72
2021/12/31 09:58:35;;;;;;;0.10;0.10;;;;;;;;;;5005288;28;20342;-71
2021/12/31 10:01:02;;;;;;;0.10;0.10;;;;;;;;;;5017047;28;20255;-70
2021/12/31 10:03:30;;;;;;;0.10;0.10;;;;;;;;;;5025663;28;20233;-65
2021/12/31 10:05:57;;;;;;;0.10;0.10;;;;;;;;;;5044804;28;20553;-66
2021/12/31 10:08:24;;;;;;;0.10;0.10;;;;;;;;;;5044885;28;20208;-65
2021/12/31 10:11:04;;;;;;;0.00;0.00;;;;;;;;;;5044808;28;20271;-65
2021/12/31 10:13:30;;;;;;;0.10;0.10;;;;;;;;;;5044838;28;20204;-66
2021/12/31 10:15:56;;;;;;;0.10;0.10;;;;;;;;;;5044800;28;20212;-65
2021/12/31 10:18:30;;;;;;;0.10;0.10;;;;;;;;;;5044499;28;20206;-66
2021/12/31 10:20:56;;;;;;;0.10;0.10;;;;;;;;;;5041916;28;20217;-65
2021/12/31 10:23:22;;;;;;;0.10;0.10;;;;;;;;;;5005165;28;20213;-65
2021/12/31 10:25:49;;;;;;;0.00;0.00;;;;;;;;;;5004890;28;20553;-66
2021/12/31 10:28:16;;;;;;;0.10;0.10;;;;;;;;;;5005063;28;20214;-66
2021/12/31 10:30:42;;;;;;;0.10;0.10;;;;;;;;;;5018387;28;20209;-67
2021/12/31 10:33:09;;;;;;;0.00;0.00;;;;;;;;;;5024367;28;20208;-68
2021/12/31 10:35:41;;;;;;;0.10;0.10;;;;;;;;;;5024601;28;20208;-66
2021/12/31 10:38:07;;;;;;;0.10;0.10;;;;;;;;;;5008059;28;20211;-68
2021/12/31 10:40:36;;;;;;;0.10;0.10;;;;;;;;;;5009837;28;20263;-66
2021/12/31 10:43:10;;;;;;;0.10;0.10;;;;;;;;;;5023832;28;20273;-68
2021/12/31 10:45:36;;;;;;;0.10;0.10;;;;;;;;;;5023810;28;20275;-66
2021/12/31 10:48:07;;;;;;;0.10;0.10;;;;;;;;;;5009210;28;20209;-68
2021/12/31 10:50:35;;;;;;;0.10;0.10;;;;;;;;;;5004649;28;20425;-65
2021/12/31 10:53:08;;;;;;;0.10;0.10;;;;;;;;;;5017842;28;20208;-66
2021/12/31 10:55:39;;;;;;;0.10;0.10;;;;;;;;;;5004521;28;20206;-65
2021/12/31 10:58:06;;;;;;;0.10;0.10;;;;;;;;;;5023692;28;20203;-65
2021/12/31 11:00:33;;;;;;;0.20;0.20;;;;;;;;;;5023949;28;20215;-67
2021/12/31 11:03:00;;;;;;;0.10;0.10;;;;;;;;;;5023778;28;20385;-66
2021/12/31 11:09:06;;;;;;;0.10;0.10;;;;;;;;;;5022611;28;20165;-67
2021/12/31 11:11:34;;;;;;;0.10;0.10;;;;;;;;;;5013525;28;20206;-65
2021/12/31 11:14:02;;;;;;;0.00;0.00;;;;;;;;;;5023811;28;20234;-68
2021/12/31 11:16:28;;;;;;;0.10;0.10;;;;;;;;;;5032540;28;20201;-69
2021/12/31 11:18:55;;;;;;;0.10;0.10;;;;;;;;;;5040757;28;20206;-66
2021/12/31 11:21:22;;;;;;;0.10;0.10;;;;;;;;;;5008630;28;20213;-69
2021/12/31 11:23:48;;;;;;;0.00;0.00;;;;;;;;;;5003953;28;20208;-68
2021/12/31 11:26:26;;;;;;;0.10;0.10;;;;;;;;;;5003871;28;20229;-66
2021/12/31 11:28:54;;;;;;;0.10;0.10;;;;;;;;;;5018937;28;20201;-66
2021/12/31 11:31:22;;;;;;;0.10;0.10;;;;;;;;;;5023581;28;20369;-66
2021/12/31 11:34:11;;;;;;;0.10;0.10;;;;;;;;;;5007078;28;20215;-67
2021/12/31 11:36:38;;;;;;;0.10;0.10;;;;;;;;;;5003879;28;20272;-69
2021/12/31 11:39:13;;;;;;;0.10;0.10;;;;;;;;;;5003712;28;20213;-67
2021/12/31 11:41:40;;;;;;;0.10;0.10;;;;;;;;;;5006639;28;20197;-70
2021/12/31 11:44:09;;;;;;;0.10;0.10;;;;;;;;;;5008526;28;20562;-70
2021/12/31 11:46:36;;;;;;;0.10;0.10;;;;;;;;;;5003255;28;20233;-66
2021/12/31 11:49:03;;;;;;;0.10;0.10;;;;;;;;;;5006690;28;20220;-70
2021/12/31 11:51:34;;;;;;;0.10;0.10;;;;;;;;;;5017110;28;20575;-70
2021/12/31 11:54:19;;;;;;;0.10;0.10;;;;;;;;;;5023273;28;20220;-69
2021/12/31 11:56:55;;;;;;;0.10;0.10;;;;;;;;;;5011729;28;20205;-70
2021/12/31 11:59:31;;;;;;;0.10;0.10;;;;;;;;;;5017399;28;20204;-70
2021/12/31 12:02:06;;;;;;;0.10;0.10;;;;;;;;;;5016964;28;20246;-70
2021/12/31 12:04:33;;;;;;;0.10;0.10;;;;;;;;;;5027042;28;20242;-70
2021/12/31 12:06:59;;;;;;;0.20;0.20;;;;;;;;;;5016611;28;20298;-72
2021/12/31 12:09:46;;;;;;;0.10;0.10;;;;;;;;;;5024424;28;20206;-71
2021/12/31 12:12:13;;;;;;;0.10;0.10;;;;;;;;;;5026560;28;20205;-68
2021/12/31 12:14:41;;;;;;;0.10;0.10;;;;;;;;;;5027077;28;20511;-69
2021/12/31 12:17:08;;;;;;;0.10;0.10;;;;;;;;;;5026673;28;20249;-69
2021/12/31 12:20:01;;;;;;;0.10;0.10;;;;;;;;;;5022595;28;20215;-72
2021/12/31 12:22:28;;;;;;;0.10;0.10;;;;;;;;;;5021756;28;20212;-71
2021/12/31 12:24:55;;;;;;;0.10;0.10;;;;;;;;;;5021077;28;20219;-72
2021/12/31 12:27:22;;;;;;;0.10;0.10;;;;;;;;;;5026560;28;20233;-74
2021/12/31 12:29:50;;;;;;;0.10;0.10;;;;;;;;;;5017005;28;20419;-71
2021/12/31 12:32:28;;;;;;;0.10;0.10;;;;;;;;;;5013044;28;20215;-72
2021/12/31 12:34:54;;;;;;;0.10;0.10;;;;;;;;;;5015892;28;20202;-74
2021/12/31 12:37:26;;;;;;;0.10;0.10;;;;;;;;;;5026755;28;20362;-72
2021/12/31 12:39:57;;;;;;;0.10;0.10;;;;;;;;;;5026474;28;20211;-69
2021/12/31 12:42:23;;;;;;;0.10;0.10;;;;;;;;;;5022345;28;20243;-74
2021/12/31 12:44:58;;;;;;;0.10;0.10;;;;;;;;;;5026487;28;20252;-73
2021/12/31 12:47:25;;;;;;;0.10;0.10;;;;;;;;;;5026477;28;20542;-72
2021/12/31 12:49:54;;;;;;;0.10;0.10;;;;;;;;;;5026006;28;20212;-72
2021/12/31 12:52:20;;;;;;;0.10;0.10;;;;;;;;;;5026413;28;20550;-70
2021/12/31 12:54:47;;;;;;;0.10;0.10;;;;;;;;;;5026131;28;20206;-72
2021/12/31 12:57:23;;;;;;;0.00;0.00;;;;;;;;;;5025858;28;20556;-72
2021/12/31 12:59:49;;;;;;;0.10;0.10;;;;;;;;;;5025805;28;20204;-72
2021/12/31 13:02:40;;;;;;;0.10;0.10;;;;;;;;;;5026306;28;20276;-73
2021/12/31 13:05:06;;;;;;;0.10;0.10;;;;;;;;;;5034836;28;20242;-72
2021/12/31 13:07:33;;;;;;;0.10;0.10;;;;;;;;;;5045898;28;20274;-71
2021/12/31 13:10:04;;;;;;;0.10;0.10;;;;;;;;;;5045812;28;20246;-72
2021/12/31 13:12:33;;;;;;;0.10;0.10;;;;;;;;;;5029374;28;20378;-71
2021/12/31 13:15:02;;;;;;;0.07;0.07;;;;;;;;;;5010336;28;20201;-71
2021/12/31 13:17:32;;;;;;;0.10;0.10;;;;;;;;;;5005957;28;20198;-70
2021/12/31 13:20:05;;;;;;;0.10;0.10;;;;;;;;;;5006228;28;20223;-70
2021/12/31 13:22:33;;;;;;;0.10;0.10;;;;;;;;;;5009802;28;20226;-70
2021/12/31 13:24:59;;;;;;;0.10;0.10;;;;;;;;;;5025686;28;20269;-71
2021/12/31 13:27:25;;;;;;;0.10;0.10;;;;;;;;;;5025467;28;20234;-70
2021/12/31 13:30:01;;;;;;;0.10;0.10;;;;;;;;;;5025535;28;20468;-70
2021/12/31 13:32:36;;;;;;;0.10;0.10;;;;;;;;;;5025729;28;20196;-68
2021/12/31 13:35:06;;;;;;;0.10;0.10;;;;;;;;;;5025691;28;20194;-68
2021/12/31 13:37:34;;;;;;;0.10;0.10;;;;;;;;;;5025735;28;20235;-71
2021/12/31 13:40:04;;;;;;;0.10;0.10;;;;;;;;;;5025663;28;20233;-76
2021/12/31 13:42:31;;;;;;;0.07;0.07;;;;;;;;;;5025032;28;20216;-69
2021/12/31 13:44:57;;;;;;;0.10;0.10;;;;;;;;;;5025425;28;20480;-72
2021/12/31 13:47:25;;;;;;;0.10;0.10;;;;;;;;;;5003070;28;20261;-68
2021/12/31 13:49:52;;;;;;;0.10;0.10;;;;;;;;;;5016487;28;20259;-68
2021/12/31 13:52:22;;;;;;;0.10;0.10;;;;;;;;;;5016679;28;20268;-70
2021/12/31 13:54:49;;;;;;;0.10;0.10;;;;;;;;;;5020446;28;20253;-71
2021/12/31 13:57:19;;;;;;;0.00;0.00;;;;;;;;;;5005255;28;20224;-71
2021/12/31 13:59:46;;;;;;;0.00;0.00;;;;;;;;;;5010787;28;20281;-69
2021/12/31 14:02:15;;;;;;;0.10;0.10;;;;;;;;;;5013252;28;20228;-71
2021/12/31 14:05:02;;;;;;;0.10;0.10;;;;;;;;;;5007723;28;20283;-73
2021/12/31 14:07:34;;;;;;;0.10;0.10;;;;;;;;;;5015072;28;20555;-72
2021/12/31 14:10:01;;;;;;;0.10;0.10;;;;;;;;;;5015709;28;20279;-71
2021/12/31 14:12:28;;;;;;;0.03;0.03;;;;;;;;;;5014943;28;20202;-72
2021/12/31 14:14:56;;;;;;;0.07;0.07;;;;;;;;;;5018856;28;20217;-73
2021/12/31 14:17:24;;;;;;;0.10;0.10;;;;;;;;;;5021923;28;20210;-73
2021/12/31 14:19:50;;;;;;;0.10;0.10;;;;;;;;;;5014551;28;20203;-72
2021/12/31 14:22:16;;;;;;;0.10;0.10;;;;;;;;;;5019044;28;20255;-72
2021/12/31 14:24:44;;;;;;;0.10;0.10;;;;;;;;;;5015695;28;20235;-73
2021/12/31 14:27:10;;;;;;;0.10;0.10;;;;;;;;;;5019556;28;20288;-72
2021/12/31 14:29:37;;;;;;;0.00;0.00;;;;;;;;;;5016309;28;20206;-72
2021/12/31 14:32:03;;;;;;;0.10;0.10;;;;;;;;;;5020062;28;20278;-72
2021/12/31 14:34:31;;;;;;;0.10;0.10;;;;;;;;;;5004556;28;20214;-71
2021/12/31 14:36:59;;;;;;;0.10;0.10;;;;;;;;;;5017759;28;20393;-71
2021/12/31 14:39:26;;;;;;;0.10;0.10;;;;;;;;;;5019640;28;20223;-72
2021/12/31 14:41:54;;;;;;;0.10;0.10;;;;;;;;;;5015604;28;20213;-72
2021/12/31 14:44:21;;;;;;;0.10;0.10;;;;;;;;;;5014999;28;20227;-73
2021/12/31 14:46:47;;;;;;;0.10;0.10;;;;;;;;;;5022530;28;20258;-71
2021/12/31 14:49:14;;;;;;;0.10;0.10;;;;;;;;;;5023896;28;20213;-72
2021/12/31 14:51:40;;;;;;;0.10;0.10;;;;;;;;;;5023972;28;20283;-72
2021/12/31 14:54:09;;;;;;;0.10;0.10;;;;;;;;;;5024432;28;20208;-71